createdAt,value
2019-02-22T00:02:38.181Z,10.40
2019-02-22T00:05:06.964Z,10.43
2019-02-22T00:07:35.589Z,10.00
2019-02-22T00:10:04.708Z,12.00
2019-02-22T00:12:32.857Z,13.97
2019-02-22T00:15:00.958Z,12.43
2019-02-22T00:17:29.266Z,14.03
2019-02-22T00:19:57.369Z,13.87
2019-02-22T00:22:25.529Z,12.07
2019-02-22T00:24:53.766Z,11.20
2019-02-22T00:27:22.341Z,11.77
2019-02-22T00:29:50.530Z,10.80
2019-02-22T00:32:19.076Z,9.73
2019-02-22T00:34:47.318Z,10.90
2019-02-22T00:37:15.642Z,9.40
2019-02-22T00:39:43.745Z,10.57
2019-02-22T00:42:11.983Z,10.87
2019-02-22T00:44:40.092Z,10.43
2019-02-22T00:47:08.242Z,10.07
2019-02-22T00:49:36.435Z,10.97
2019-02-22T00:52:04.709Z,9.77
2019-02-22T00:54:32.871Z,11.50
2019-02-22T00:57:01.535Z,11.53
2019-02-22T00:59:29.726Z,12.93
2019-02-22T01:01:57.974Z,10.60
2019-02-22T01:04:26.107Z,10.70
2019-02-22T01:06:54.367Z,9.47
2019-02-22T01:09:22.919Z,9.83
2019-02-22T01:11:51.215Z,9.80
2019-02-22T01:14:19.725Z,9.70
2019-02-22T01:16:47.886Z,9.07
2019-02-22T01:19:15.985Z,9.83
2019-02-22T01:21:44.252Z,9.47
2019-02-22T01:24:12.356Z,9.63
2019-02-22T01:26:41.011Z,9.33
2019-02-22T01:29:09.123Z,8.50
2019-02-22T01:31:37.293Z,9.33
2019-02-22T01:34:05.390Z,8.47
2019-02-22T01:36:33.579Z,9.53
2019-02-22T01:39:01.710Z,9.53
2019-02-22T01:41:30.274Z,8.53
2019-02-22T01:43:58.381Z,9.90
2019-02-22T01:46:26.615Z,9.97
2019-02-22T01:48:54.715Z,10.30
2019-02-22T01:51:23.397Z,8.37
2019-02-22T01:53:53.894Z,8.90
2019-02-22T01:56:21.440Z,8.67
2019-02-22T01:58:49.587Z,9.13
2019-02-22T02:01:17.684Z,9.17
2019-02-22T02:03:45.834Z,9.73
2019-02-22T02:06:13.999Z,8.87
2019-02-22T02:08:42.151Z,9.67
2019-02-22T02:11:10.461Z,9.47
2019-02-22T02:13:38.728Z,8.60
2019-02-22T02:16:06.938Z,8.53
2019-02-22T02:18:35.214Z,8.93
2019-02-22T02:21:03.313Z,8.30
2019-02-22T02:23:31.562Z,8.63
2019-02-22T02:26:00.219Z,7.43
2019-02-22T02:28:28.381Z,7.60
2019-02-22T02:30:56.711Z,8.23
2019-02-22T02:33:24.846Z,8.27
2019-02-22T02:35:52.977Z,8.13
2019-02-22T02:38:21.116Z,8.53
2019-02-22T02:40:49.214Z,8.13
2019-02-22T02:43:17.379Z,7.60
2019-02-22T02:45:45.476Z,8.27
2019-02-22T02:48:13.626Z,8.17
2019-02-22T02:50:41.730Z,10.10
2019-02-22T02:53:10.005Z,8.77
2019-02-22T02:55:38.729Z,9.37
2019-02-22T02:58:07.372Z,9.07
2019-02-22T03:00:35.667Z,9.30
2019-02-22T03:03:04.087Z,9.07
2019-02-22T03:06:00.610Z,8.77
2019-02-22T03:08:32.790Z,9.50
2019-02-22T03:11:00.935Z,8.73
2019-02-22T03:13:29.105Z,8.57
2019-02-22T03:15:57.607Z,9.17
2019-02-22T03:18:25.767Z,9.33
2019-02-22T03:20:54.239Z,9.93
2019-02-22T03:23:22.410Z,8.63
2019-02-22T03:25:50.524Z,8.87
2019-02-22T03:28:18.669Z,8.57
2019-02-22T03:30:46.798Z,8.03
2019-02-22T03:33:14.955Z,7.77
2019-02-22T03:35:43.138Z,9.33
2019-02-22T03:38:11.290Z,8.83
2019-02-22T03:40:39.414Z,9.30
2019-02-22T03:43:07.571Z,9.03
2019-02-22T03:45:35.684Z,9.07
2019-02-22T03:48:03.962Z,8.47
2019-02-22T03:50:32.274Z,8.80
2019-02-22T03:53:06.799Z,7.57
2019-02-22T03:55:35.095Z,8.40
2019-02-22T03:58:03.464Z,6.87
2019-02-22T04:00:31.605Z,8.20
2019-02-22T04:03:00.067Z,8.60
2019-02-22T04:05:28.225Z,7.27
2019-02-22T04:07:57.140Z,8.20
2019-02-22T04:10:25.398Z,8.20
2019-02-22T04:12:53.499Z,7.50
2019-02-22T04:15:21.989Z,6.87
2019-02-22T04:17:50.180Z,7.00
2019-02-22T04:20:18.357Z,8.10
2019-02-22T04:22:46.470Z,7.30
2019-02-22T04:25:14.609Z,7.83
2019-02-22T04:27:43.067Z,7.93
2019-02-22T04:30:11.438Z,7.17
2019-02-22T04:32:39.526Z,7.60
2019-02-22T04:35:07.880Z,8.20
2019-02-22T04:37:35.982Z,8.03
2019-02-22T04:40:04.863Z,7.97
2019-02-22T04:42:33.094Z,7.60
2019-02-22T04:45:01.276Z,7.40
2019-02-22T04:47:29.458Z,7.83
2019-02-22T04:49:57.632Z,8.00
2019-02-22T04:52:25.781Z,8.03
2019-02-22T04:54:53.918Z,7.93
2019-02-22T04:57:22.071Z,7.27
2019-02-22T04:59:50.220Z,7.20
2019-02-22T05:02:18.456Z,7.60
2019-02-22T05:04:47.039Z,6.13
2019-02-22T05:07:15.130Z,7.47
2019-02-22T05:09:43.295Z,6.90
2019-02-22T05:12:11.733Z,6.63
2019-02-22T05:14:39.911Z,7.27
2019-02-22T05:17:07.989Z,7.03
2019-02-22T05:19:36.125Z,6.80
2019-02-22T05:22:04.205Z,6.47
2019-02-22T05:24:32.337Z,5.50
2019-02-22T05:27:00.587Z,7.17
2019-02-22T05:29:29.072Z,6.23
2019-02-22T05:31:57.158Z,6.90
2019-02-22T05:34:25.699Z,6.57
2019-02-22T05:36:54.211Z,5.80
2019-02-22T05:39:22.301Z,5.73
2019-02-22T05:41:50.537Z,5.83
2019-02-22T05:44:19.304Z,4.80
2019-02-22T05:46:57.465Z,5.83
2019-02-22T05:49:17.385Z,4.17
2019-02-22T05:51:45.523Z,4.43
2019-02-22T05:54:13.638Z,4.73
2019-02-22T05:56:41.855Z,5.70
2019-02-22T05:59:09.943Z,5.60
2019-02-22T06:01:38.099Z,5.27
2019-02-22T06:04:06.190Z,5.30
2019-02-22T06:06:34.329Z,5.57
2019-02-22T06:09:04.322Z,5.30
2019-02-22T06:11:32.463Z,5.03
2019-02-22T06:14:00.539Z,5.00
2019-02-22T06:16:28.673Z,5.77
2019-02-22T06:18:56.851Z,4.93
2019-02-22T06:21:24.994Z,5.23
2019-02-22T06:23:53.078Z,5.30
2019-02-22T06:26:21.219Z,4.80
2019-02-22T06:28:49.301Z,5.83
2019-02-22T06:31:17.446Z,4.20
2019-02-22T06:33:45.535Z,4.30
2019-02-22T06:36:13.674Z,4.93
2019-02-22T06:38:42.118Z,4.40
2019-02-22T06:41:10.260Z,4.67
2019-02-22T06:43:38.405Z,4.57
2019-02-22T06:46:06.530Z,4.63
2019-02-22T06:48:34.614Z,3.70
2019-02-22T06:51:02.793Z,3.90
2019-02-22T06:53:30.954Z,4.17
2019-02-22T06:55:59.189Z,4.37
2019-02-22T06:58:27.683Z,4.27
2019-02-22T07:00:55.819Z,4.93
2019-02-22T07:03:23.904Z,3.83
2019-02-22T07:05:52.670Z,3.83
2019-02-22T07:08:20.770Z,4.60
2019-02-22T07:11:10.658Z,5.53
2019-02-22T07:13:38.758Z,4.10
2019-02-22T07:16:06.897Z,3.13
2019-02-22T07:18:35.098Z,2.93
2019-02-22T07:21:03.447Z,3.23
2019-02-22T07:23:31.937Z,2.87
2019-02-22T07:26:00.190Z,3.10
2019-02-22T07:28:28.290Z,3.07
2019-02-22T07:30:56.525Z,3.27
2019-02-22T07:33:25.110Z,2.93
2019-02-22T07:35:53.669Z,2.83
2019-02-22T07:38:21.799Z,3.23
2019-02-22T07:40:49.886Z,2.60
2019-02-22T07:43:18.036Z,3.30
2019-02-22T07:45:46.135Z,2.17
2019-02-22T07:48:14.279Z,2.80
2019-02-22T07:50:42.462Z,3.67
2019-02-22T07:53:10.597Z,2.70
2019-02-22T07:55:39.102Z,2.57
2019-02-22T07:58:08.753Z,3.33
2019-02-22T08:00:37.674Z,3.23
2019-02-22T08:03:06.291Z,3.80
2019-02-22T08:05:34.382Z,3.47
2019-02-22T08:08:02.527Z,2.47
2019-02-22T08:10:30.653Z,2.17
2019-02-22T08:12:58.911Z,2.37
2019-02-22T08:15:27.479Z,3.13
2019-02-22T08:17:56.020Z,3.83
2019-02-22T08:20:24.231Z,3.20
2019-02-22T08:22:52.384Z,3.10
2019-02-22T08:25:20.500Z,2.40
2019-02-22T08:27:53.747Z,2.43
2019-02-22T08:30:18.692Z,2.50
2019-02-22T08:32:46.855Z,2.30
2019-02-22T08:35:15.623Z,2.80
2019-02-22T08:37:43.781Z,2.03
2019-02-22T08:40:11.893Z,2.53
2019-02-22T08:42:40.050Z,3.00
2019-02-22T08:45:09.641Z,2.37
2019-02-22T08:47:38.171Z,2.43
2019-02-22T08:50:06.787Z,2.63
2019-02-22T08:52:34.947Z,2.73
2019-02-22T08:55:03.694Z,2.20
2019-02-22T08:57:31.919Z,2.60
2019-02-22T09:00:00.100Z,2.70
2019-02-22T09:02:28.954Z,3.30
2019-02-22T09:04:57.043Z,2.70
2019-02-22T09:07:25.190Z,2.03
2019-02-22T09:09:53.303Z,4.23
2019-02-22T09:12:21.475Z,3.03
2019-02-22T09:14:49.567Z,3.23
2019-02-22T09:17:17.714Z,2.13
2019-02-22T09:19:45.811Z,2.67
2019-02-22T09:22:22.480Z,2.33
2019-02-22T09:24:43.846Z,3.10
2019-02-22T09:27:12.007Z,2.73
2019-02-22T09:29:40.159Z,2.87
2019-02-22T09:32:09.223Z,2.60
2019-02-22T09:34:37.315Z,2.57
2019-02-22T09:37:05.621Z,2.63
2019-02-22T09:39:33.780Z,2.77
2019-02-22T09:42:01.875Z,2.33
2019-02-22T09:44:30.036Z,2.20
2019-02-22T09:46:58.151Z,2.57
2019-02-22T09:49:26.726Z,2.43
2019-02-22T09:51:54.937Z,2.47
2019-02-22T09:54:23.075Z,2.67
2019-02-22T09:56:51.277Z,2.57
2019-02-22T09:59:19.480Z,2.43
2019-02-22T10:01:47.580Z,2.63
2019-02-22T10:04:16.078Z,2.20
2019-02-22T10:06:44.188Z,2.60
2019-02-22T10:09:12.335Z,2.77
2019-02-22T10:11:40.432Z,3.13
2019-02-22T10:14:08.595Z,3.23
2019-02-22T10:16:36.703Z,2.97
2019-02-22T10:19:04.959Z,2.13
2019-02-22T10:21:33.446Z,2.33
2019-02-22T10:24:01.658Z,3.17
2019-02-22T10:26:29.745Z,2.67
2019-02-22T10:28:57.923Z,3.17
2019-02-22T10:31:26.118Z,3.13
2019-02-22T10:33:54.262Z,2.97
2019-02-22T10:36:22.575Z,3.30
2019-02-22T10:38:51.136Z,3.17
2019-02-22T10:41:19.576Z,3.00
2019-02-22T10:43:48.062Z,3.00
2019-02-22T10:46:16.428Z,2.67
2019-02-22T10:48:44.585Z,2.83
2019-02-22T10:51:12.679Z,2.40
2019-02-22T10:53:40.943Z,2.40
2019-02-22T10:56:09.045Z,2.70
2019-02-22T10:58:37.259Z,2.73
2019-02-22T11:01:05.618Z,2.93
2019-02-22T11:03:33.783Z,2.70
2019-02-22T11:06:02.241Z,2.63
2019-02-22T11:08:30.386Z,3.03
2019-02-22T11:10:58.498Z,2.77
2019-02-22T11:13:28.263Z,2.90
2019-02-22T11:15:56.858Z,3.20
2019-02-22T11:18:25.031Z,2.40
2019-02-22T11:20:53.182Z,3.07
2019-02-22T11:23:21.284Z,2.50
2019-02-22T11:25:50.109Z,2.40
2019-02-22T11:28:18.320Z,2.40
2019-02-22T11:30:46.570Z,3.03
2019-02-22T11:33:14.678Z,2.70
2019-02-22T11:35:42.819Z,2.57
2019-02-22T11:38:11.267Z,2.40
2019-02-22T11:40:39.415Z,2.87
2019-02-22T11:43:07.622Z,2.20
2019-02-22T11:45:35.775Z,2.90
2019-02-22T11:48:09.059Z,2.63
2019-02-22T11:50:34.398Z,2.20
2019-02-22T11:53:02.590Z,2.20
2019-02-22T11:55:31.166Z,2.77
2019-02-22T11:57:59.864Z,1.30
2019-02-22T12:00:28.486Z,1.00
2019-02-22T12:02:56.590Z,0.90
2019-02-22T12:05:24.851Z,1.00
2019-02-22T12:07:52.951Z,1.20
2019-02-22T12:10:21.517Z,1.63
2019-02-22T12:12:49.722Z,1.30
2019-02-22T12:15:17.912Z,1.00
2019-02-22T12:17:46.024Z,1.27
2019-02-22T12:20:14.273Z,0.80
2019-02-22T12:22:42.367Z,0.77
2019-02-22T12:25:10.631Z,0.77
2019-02-22T12:27:39.214Z,0.60
2019-02-22T12:30:09.751Z,0.70
2019-02-22T12:32:39.556Z,0.80
2019-02-22T12:35:08.259Z,1.50
2019-02-22T12:37:36.457Z,1.43
2019-02-22T12:40:05.984Z,1.07
2019-02-22T12:42:34.579Z,0.60
2019-02-22T12:45:03.623Z,0.90
2019-02-22T12:47:31.967Z,0.80
2019-02-22T12:50:00.223Z,0.80
2019-02-22T12:52:28.470Z,0.73
2019-02-22T12:54:56.625Z,1.00
2019-02-22T12:57:24.805Z,0.90
2019-02-22T12:59:53.137Z,1.20
2019-02-22T13:02:21.248Z,1.30
2019-02-22T13:04:49.753Z,1.63
2019-02-22T13:07:17.864Z,1.47
2019-02-22T13:09:46.071Z,1.60
2019-02-22T13:12:17.103Z,1.60
2019-02-22T13:14:44.202Z,1.30
2019-02-22T13:17:12.289Z,1.70
2019-02-22T13:19:40.400Z,1.33
2019-02-22T13:22:08.555Z,1.53
2019-02-22T13:24:36.750Z,1.70
2019-02-22T13:27:05.104Z,1.17
2019-02-22T13:29:33.195Z,1.43
2019-02-22T13:32:01.695Z,1.40
2019-02-22T13:34:29.801Z,1.30
2019-02-22T13:36:58.146Z,1.23
2019-02-22T13:39:26.609Z,1.90
2019-02-22T13:41:54.862Z,1.27
2019-02-22T13:44:22.972Z,1.40
2019-02-22T13:46:51.211Z,1.30
2019-02-22T13:49:19.307Z,1.10
2019-02-22T13:51:47.459Z,1.00
2019-02-22T13:54:15.930Z,1.40
2019-02-22T13:56:44.083Z,1.10
2019-02-22T13:59:12.344Z,1.27
2019-02-22T14:01:40.554Z,0.90
2019-02-22T14:04:08.646Z,1.30
2019-02-22T14:06:37.175Z,1.30
2019-02-22T14:09:06.171Z,1.00
2019-02-22T14:11:34.315Z,1.37
2019-02-22T14:14:02.532Z,0.93
2019-02-22T14:16:30.665Z,1.07
2019-02-22T14:18:58.782Z,1.00
2019-02-22T14:21:26.948Z,1.43
2019-02-22T14:23:55.050Z,0.90
2019-02-22T14:26:23.203Z,1.10
2019-02-22T14:28:51.299Z,1.10
2019-02-22T14:31:19.459Z,1.17
2019-02-22T14:33:47.565Z,1.07
2019-02-22T14:36:16.395Z,1.20
2019-02-22T14:38:44.674Z,1.10
2019-02-22T14:41:12.882Z,1.10
2019-02-22T14:43:40.997Z,1.23
2019-02-22T14:46:09.157Z,1.00
2019-02-22T14:48:37.373Z,1.00
2019-02-22T14:51:05.723Z,1.13
2019-02-22T14:53:33.827Z,0.97
2019-02-22T14:56:01.971Z,1.10
2019-02-22T14:58:30.127Z,1.20
2019-02-22T15:00:58.374Z,1.00
2019-02-22T15:03:26.526Z,1.00
2019-02-22T15:05:54.734Z,1.03
2019-02-22T15:08:23.320Z,0.80
2019-02-22T15:10:51.415Z,1.10
2019-02-22T15:13:19.674Z,1.00
2019-02-22T15:16:16.190Z,1.00
2019-02-22T15:18:44.386Z,1.10
2019-02-22T15:21:12.888Z,1.10
2019-02-22T15:23:41.048Z,1.07
2019-02-22T15:26:09.527Z,1.00
2019-02-22T15:28:38.246Z,0.90
2019-02-22T15:31:06.547Z,1.00
2019-02-22T15:33:34.698Z,1.00
2019-02-22T15:36:03.522Z,0.90
2019-02-22T15:38:31.680Z,1.07
2019-02-22T15:40:59.798Z,1.00
2019-02-22T15:43:27.943Z,1.00
2019-02-22T15:45:56.030Z,1.07
2019-02-22T15:48:24.283Z,1.27
2019-02-22T15:50:52.399Z,1.00
2019-02-22T15:53:20.608Z,0.80
2019-02-22T15:55:48.914Z,1.00
2019-02-22T15:58:17.059Z,1.27
2019-02-22T16:00:45.717Z,1.13
2019-02-22T16:03:14.022Z,1.10
2019-02-22T16:05:43.520Z,0.90
2019-02-22T16:08:11.699Z,1.10
2019-02-22T16:10:40.007Z,0.90
2019-02-22T16:13:08.643Z,1.47
2019-02-22T16:15:36.962Z,1.20
2019-02-22T16:18:05.099Z,1.13
2019-02-22T16:20:33.310Z,1.20
2019-02-22T16:23:01.474Z,1.10
2019-02-22T16:25:29.574Z,1.00
2019-02-22T16:27:57.728Z,0.97
2019-02-22T16:30:29.317Z,1.20
2019-02-22T16:32:57.658Z,1.10
2019-02-22T16:35:25.847Z,1.27
2019-02-22T16:37:54.449Z,1.50
2019-02-22T16:40:22.635Z,1.47
2019-02-22T16:42:50.791Z,1.30
2019-02-22T16:45:19.355Z,1.30
2019-02-22T16:47:47.607Z,1.17
2019-02-22T16:50:15.955Z,1.40
2019-02-22T16:52:45.269Z,1.20
2019-02-22T16:55:14.257Z,1.20
2019-02-22T16:57:42.790Z,1.13
2019-02-22T17:00:12.542Z,1.30
2019-02-22T17:02:40.635Z,1.10
2019-02-22T17:05:10.490Z,1.40
2019-02-22T17:07:39.058Z,1.60
2019-02-22T17:10:08.583Z,1.30
2019-02-22T17:12:36.675Z,1.60
2019-02-22T17:15:05.090Z,1.40
2019-02-22T17:17:33.199Z,1.13
2019-02-22T17:20:01.360Z,1.00
2019-02-22T17:22:29.576Z,1.30
2019-02-22T17:24:57.738Z,1.00
2019-02-22T17:27:26.282Z,1.47
2019-02-22T17:29:54.434Z,1.00
2019-02-22T17:32:22.538Z,1.50
2019-02-22T17:34:51.074Z,1.07
2019-02-22T17:37:19.178Z,1.20
2019-02-22T17:39:47.334Z,1.20
2019-02-22T17:42:15.443Z,1.10
2019-02-22T17:44:43.642Z,1.20
2019-02-22T17:47:11.759Z,1.50
2019-02-22T17:49:39.928Z,1.17
2019-02-22T17:52:08.036Z,1.33
2019-02-22T17:54:36.197Z,1.10
2019-02-22T17:57:04.307Z,1.13
2019-02-22T17:59:32.446Z,1.00
2019-02-22T18:02:00.706Z,0.97
2019-02-22T18:04:29.253Z,1.13
2019-02-22T18:06:57.706Z,1.03
2019-02-22T18:09:25.850Z,1.10
2019-02-22T18:11:53.959Z,0.97
2019-02-22T18:14:22.570Z,1.10
2019-02-22T18:16:50.666Z,0.90
2019-02-22T18:19:18.923Z,1.30
2019-02-22T18:21:47.125Z,1.10
2019-02-22T18:24:15.620Z,1.40
2019-02-22T18:26:43.723Z,1.40
2019-02-22T18:29:11.874Z,1.50
2019-02-22T18:31:42.278Z,1.00
2019-02-22T18:34:10.446Z,1.10
2019-02-22T18:36:38.648Z,1.10
2019-02-22T18:39:07.142Z,1.20
2019-02-22T18:41:35.347Z,1.20
2019-02-22T18:44:03.602Z,1.50
2019-02-22T18:46:31.711Z,1.50
2019-02-22T18:48:59.806Z,1.30
2019-02-22T18:51:27.953Z,1.60
2019-02-22T18:53:56.054Z,1.50
2019-02-22T18:56:24.218Z,1.83
2019-02-22T18:58:52.374Z,2.10
2019-02-22T19:01:20.532Z,2.00
2019-02-22T19:03:48.626Z,2.17
2019-02-22T19:06:16.771Z,1.73
2019-02-22T19:08:45.321Z,2.30
2019-02-22T19:11:13.826Z,2.10
2019-02-22T19:13:42.287Z,1.70
2019-02-22T19:16:10.538Z,2.17
2019-02-22T19:18:39.038Z,2.10
2019-02-22T19:21:07.274Z,3.33
2019-02-22T19:23:35.787Z,2.80
2019-02-22T19:26:04.049Z,2.17
2019-02-22T19:28:32.267Z,2.00
2019-02-22T19:31:00.426Z,2.03
2019-02-22T19:33:28.670Z,1.80
2019-02-22T19:35:56.822Z,2.73
2019-02-22T19:38:24.921Z,2.50
2019-02-22T19:40:53.183Z,3.23
2019-02-22T19:43:21.279Z,2.80
2019-02-22T19:45:49.423Z,3.60
2019-02-22T19:48:17.527Z,3.50
2019-02-22T19:50:46.046Z,2.10
2019-02-22T19:53:14.159Z,2.47
2019-02-22T19:55:42.314Z,2.00
2019-02-22T19:58:10.414Z,2.07
2019-02-22T20:00:38.572Z,2.37
2019-02-22T20:03:06.733Z,2.10
2019-02-22T20:05:34.879Z,1.80
2019-02-22T20:08:03.111Z,2.00
2019-02-22T20:10:31.375Z,2.37
2019-02-22T20:12:59.480Z,2.20
2019-02-22T20:15:27.737Z,2.30
2019-02-22T20:17:55.842Z,2.03
2019-02-22T20:20:24.007Z,2.00
2019-02-22T20:22:52.112Z,2.90
2019-02-22T20:25:20.465Z,2.40
2019-02-22T20:27:48.567Z,2.40
2019-02-22T20:30:16.971Z,2.63
2019-02-22T20:32:45.070Z,2.20
2019-02-22T20:35:15.198Z,2.60
2019-02-22T20:37:51.760Z,2.70
2019-02-22T20:40:13.559Z,2.40
2019-02-22T20:42:42.159Z,2.60
2019-02-22T20:45:10.558Z,2.00
2019-02-22T20:47:38.714Z,2.37
2019-02-22T20:50:07.911Z,2.40
2019-02-22T20:52:36.062Z,2.60
2019-02-22T20:55:04.390Z,2.87
2019-02-22T20:57:34.851Z,2.43
2019-02-22T21:00:03.117Z,2.60
2019-02-22T21:02:31.381Z,2.60
2019-02-22T21:04:59.547Z,2.30
2019-02-22T21:07:27.702Z,2.37
2019-02-22T21:09:55.910Z,2.50
2019-02-22T21:12:24.236Z,2.50
2019-02-22T21:14:52.450Z,2.40
2019-02-22T21:17:20.593Z,2.03
2019-02-22T21:19:48.710Z,2.20
2019-02-22T21:22:16.871Z,2.07
2019-02-22T21:24:45.025Z,2.10
2019-02-22T21:27:13.186Z,2.47
2019-02-22T21:29:41.283Z,1.73
2019-02-22T21:32:09.873Z,2.30
2019-02-22T21:34:37.973Z,2.20
2019-02-22T21:37:06.399Z,2.60
2019-02-22T21:39:34.507Z,2.20
2019-02-22T21:42:02.703Z,2.00
2019-02-22T21:44:30.851Z,1.93
2019-02-22T21:46:59.003Z,2.23
2019-02-22T21:49:27.111Z,2.70
2019-02-22T21:51:55.410Z,2.10
2019-02-22T21:54:23.507Z,2.53
2019-02-22T21:56:51.779Z,2.23
2019-02-22T21:59:20.006Z,2.13
2019-02-22T22:01:48.207Z,2.70
2019-02-22T22:04:17.700Z,2.20
2019-02-22T22:06:45.854Z,2.53
2019-02-22T22:09:13.986Z,3.23
2019-02-22T22:11:42.140Z,3.10
2019-02-22T22:14:11.261Z,2.77
2019-02-22T22:16:39.558Z,2.70
2019-02-22T22:19:07.671Z,2.90
2019-02-22T22:21:35.840Z,2.80
2019-02-22T22:24:04.162Z,2.97
2019-02-22T22:26:32.319Z,2.27
2019-02-22T22:29:00.451Z,2.20
2019-02-22T22:31:28.560Z,2.53
2019-02-22T22:33:56.717Z,2.63
2019-02-22T22:36:24.930Z,2.83
2019-02-22T22:38:54.929Z,2.40
2019-02-22T22:41:22.999Z,2.93
2019-02-22T22:43:51.275Z,2.50
2019-02-22T22:46:19.583Z,2.80
2019-02-22T22:48:50.716Z,2.70
2019-02-22T22:51:17.871Z,2.90
2019-02-22T22:53:46.043Z,2.40
2019-02-22T22:56:14.239Z,2.83
2019-02-22T22:58:42.388Z,2.47
2019-02-22T23:01:20.178Z,2.43
2019-02-22T23:03:48.601Z,2.73
2019-02-22T23:06:17.431Z,2.23
2019-02-22T23:08:45.973Z,2.40
2019-02-22T23:11:14.095Z,2.30
2019-02-22T23:13:42.518Z,2.37
2019-02-22T23:16:10.622Z,2.60
2019-02-22T23:18:38.880Z,2.53
2019-02-22T23:21:07.490Z,2.73
2019-02-22T23:23:35.764Z,2.73
2019-02-22T23:26:04.069Z,2.70
2019-02-22T23:28:32.214Z,2.63
2019-02-22T23:31:00.794Z,2.87
2019-02-22T23:33:29.493Z,3.07
2019-02-22T23:36:00.114Z,2.10
2019-02-22T23:38:27.752Z,2.50
2019-02-22T23:40:55.846Z,2.73
2019-02-22T23:43:24.122Z,2.70
2019-02-22T23:45:52.378Z,2.23
2019-02-22T23:48:21.106Z,2.93
2019-02-22T23:50:49.202Z,2.60
2019-02-22T23:53:17.354Z,2.40
2019-02-22T23:55:45.583Z,2.43
2019-02-22T23:58:13.745Z,2.83
